sensor_id;sensor_type;location;lat;lon;timestamp;P1;durP1;ratioP1;P2;durP2;ratioP2
77518;SDS011;66629;47.346;19.038;2023-05-09T00:02:05;4.00;;;2.78;;
77518;SDS011;66629;47.346;19.038;2023-05-09T00:04:31;6.15;;;2.83;;
77518;SDS011;66629;47.346;19.038;2023-05-09T00:06:58;3.45;;;2.80;;
77518;SDS011;66629;47.346;19.038;2023-05-09T00:09:23;3.80;;;2.53;;
77518;SDS011;66629;47.346;19.038;2023-05-09T00:11:49;5.90;;;3.28;;
77518;SDS011;66629;47.346;19.038;2023-05-09T00:14:15;5.45;;;2.90;;
77518;SDS011;66629;47.346;19.038;2023-05-09T00:16:42;3.63;;;2.72;;
77518;SDS011;66629;47.346;19.038;2023-05-09T00:19:08;4.43;;;3.08;;
77518;SDS011;66629;47.346;19.038;2023-05-09T00:21:34;4.70;;;3.28;;
77518;SDS011;66629;47.346;19.038;2023-05-09T00:23:59;2.85;;;2.53;;
77518;SDS011;66629;47.346;19.038;2023-05-09T00:26:25;4.72;;;3.25;;
77518;SDS011;66629;47.346;19.038;2023-05-09T00:28:51;5.97;;;2.80;;
77518;SDS011;66629;47.346;19.038;2023-05-09T00:31:17;4.10;;;2.90;;
77518;SDS011;66629;47.346;19.038;2023-05-09T00:33:42;3.90;;;2.78;;
77518;SDS011;66629;47.346;19.038;2023-05-09T00:36:08;4.43;;;2.80;;
77518;SDS011;66629;47.346;19.038;2023-05-09T00:38:33;4.15;;;3.13;;
77518;SDS011;66629;47.346;19.038;2023-05-09T00:40:59;5.85;;;3.42;;
77518;SDS011;66629;47.346;19.038;2023-05-09T00:43:24;3.90;;;3.05;;
77518;SDS011;66629;47.346;19.038;2023-05-09T00:45:50;6.43;;;3.45;;
77518;SDS011;66629;47.346;19.038;2023-05-09T00:48:16;5.47;;;3.60;;
77518;SDS011;66629;47.346;19.038;2023-05-09T00:50:42;4.18;;;3.15;;
77518;SDS011;66629;47.346;19.038;2023-05-09T00:53:08;4.00;;;2.90;;
77518;SDS011;66629;47.346;19.038;2023-05-09T00:55:34;5.68;;;2.90;;
77518;SDS011;66629;47.346;19.038;2023-05-09T00:58:00;4.13;;;2.90;;
77518;SDS011;66629;47.346;19.038;2023-05-09T01:00:25;6.30;;;3.38;;
77518;SDS011;66629;47.346;19.038;2023-05-09T01:02:52;5.47;;;3.13;;
77518;SDS011;66629;47.346;19.038;2023-05-09T01:05:20;4.18;;;3.00;;
77518;SDS011;66629;47.346;19.038;2023-05-09T01:07:51;6.38;;;3.50;;
77518;SDS011;66629;47.346;19.038;2023-05-09T01:10:28;5.05;;;3.22;;
77518;SDS011;66629;47.346;19.038;2023-05-09T01:13:17;4.95;;;3.05;;
77518;SDS011;66629;47.346;19.038;2023-05-09T01:22:06;4.32;;;2.92;;
77518;SDS011;66629;47.346;19.038;2023-05-09T01:25:11;4.35;;;3.35;;
77518;SDS011;66629;47.346;19.038;2023-05-09T01:30:08;4.65;;;3.00;;
77518;SDS011;66629;47.346;19.038;2023-05-09T01:32:35;4.47;;;3.63;;
77518;SDS011;66629;47.346;19.038;2023-05-09T01:35:03;4.80;;;3.40;;
77518;SDS011;66629;47.346;19.038;2023-05-09T01:37:33;5.28;;;3.80;;
77518;SDS011;66629;47.346;19.038;2023-05-09T01:40:07;4.30;;;2.92;;
77518;SDS011;66629;47.346;19.038;2023-05-09T01:42:38;6.63;;;3.22;;
77518;SDS011;66629;47.346;19.038;2023-05-09T01:45:07;5.82;;;3.38;;
77518;SDS011;66629;47.346;19.038;2023-05-09T01:47:34;5.28;;;3.58;;
77518;SDS011;66629;47.346;19.038;2023-05-09T01:50:02;5.03;;;4.13;;
77518;SDS011;66629;47.346;19.038;2023-05-09T01:52:28;5.63;;;3.20;;
77518;SDS011;66629;47.346;19.038;2023-05-09T01:54:55;5.38;;;3.67;;
77518;SDS011;66629;47.346;19.038;2023-05-09T01:57:23;5.32;;;3.38;;
77518;SDS011;66629;47.346;19.038;2023-05-09T01:59:49;5.20;;;3.67;;
77518;SDS011;66629;47.346;19.038;2023-05-09T02:02:16;6.30;;;3.38;;
77518;SDS011;66629;47.346;19.038;2023-05-09T02:04:42;5.40;;;3.60;;
77518;SDS011;66629;47.346;19.038;2023-05-09T02:07:09;5.13;;;3.67;;
77518;SDS011;66629;47.346;19.038;2023-05-09T02:09:36;4.88;;;3.55;;
77518;SDS011;66629;47.346;19.038;2023-05-09T02:12:01;5.90;;;3.95;;
77518;SDS011;66629;47.346;19.038;2023-05-09T02:14:28;4.55;;;3.08;;
77518;SDS011;66629;47.346;19.038;2023-05-09T02:16:54;5.28;;;3.75;;
77518;SDS011;66629;47.346;19.038;2023-05-09T02:19:20;8.43;;;3.65;;
77518;SDS011;66629;47.346;19.038;2023-05-09T02:21:45;6.00;;;3.38;;
77518;SDS011;66629;47.346;19.038;2023-05-09T02:24:11;4.80;;;3.30;;
77518;SDS011;66629;47.346;19.038;2023-05-09T02:26:36;6.30;;;3.30;;
77518;SDS011;66629;47.346;19.038;2023-05-09T02:29:04;4.97;;;3.70;;
77518;SDS011;66629;47.346;19.038;2023-05-09T02:31:31;6.28;;;3.40;;
77518;SDS011;66629;47.346;19.038;2023-05-09T02:33:58;5.18;;;3.28;;
77518;SDS011;66629;47.346;19.038;2023-05-09T02:36:23;5.68;;;3.63;;
77518;SDS011;66629;47.346;19.038;2023-05-09T02:38:49;5.80;;;3.65;;
77518;SDS011;66629;47.346;19.038;2023-05-09T02:41:15;4.97;;;3.45;;
77518;SDS011;66629;47.346;19.038;2023-05-09T02:43:41;5.40;;;3.47;;
77518;SDS011;66629;47.346;19.038;2023-05-09T02:46:07;5.80;;;3.72;;
77518;SDS011;66629;47.346;19.038;2023-05-09T02:48:34;4.85;;;3.45;;
77518;SDS011;66629;47.346;19.038;2023-05-09T02:50:59;6.32;;;3.53;;
77518;SDS011;66629;47.346;19.038;2023-05-09T02:53:25;5.68;;;4.00;;
77518;SDS011;66629;47.346;19.038;2023-05-09T02:55:50;6.50;;;3.50;;
77518;SDS011;66629;47.346;19.038;2023-05-09T02:58:17;4.90;;;3.28;;
77518;SDS011;66629;47.346;19.038;2023-05-09T03:00:43;5.78;;;3.88;;
77518;SDS011;66629;47.346;19.038;2023-05-09T03:03:08;5.45;;;3.45;;
77518;SDS011;66629;47.346;19.038;2023-05-09T03:05:34;5.35;;;3.88;;
77518;SDS011;66629;47.346;19.038;2023-05-09T03:08:00;5.57;;;3.63;;
77518;SDS011;66629;47.346;19.038;2023-05-09T03:10:25;5.85;;;3.75;;
77518;SDS011;66629;47.346;19.038;2023-05-09T03:12:50;5.55;;;3.65;;
77518;SDS011;66629;47.346;19.038;2023-05-09T03:15:16;6.22;;;3.85;;
77518;SDS011;66629;47.346;19.038;2023-05-09T03:17:41;6.35;;;4.00;;
77518;SDS011;66629;47.346;19.038;2023-05-09T03:20:07;6.90;;;3.47;;
77518;SDS011;66629;47.346;19.038;2023-05-09T03:22:34;5.55;;;3.58;;
77518;SDS011;66629;47.346;19.038;2023-05-09T03:25:00;12.25;;;4.28;;
77518;SDS011;66629;47.346;19.038;2023-05-09T03:27:25;5.60;;;3.65;;
77518;SDS011;66629;47.346;19.038;2023-05-09T03:29:50;6.57;;;3.85;;
77518;SDS011;66629;47.346;19.038;2023-05-09T03:32:16;6.20;;;3.92;;
77518;SDS011;66629;47.346;19.038;2023-05-09T03:34:41;5.82;;;4.03;;
77518;SDS011;66629;47.346;19.038;2023-05-09T03:37:07;5.88;;;3.90;;
77518;SDS011;66629;47.346;19.038;2023-05-09T03:39:32;8.27;;;3.75;;
77518;SDS011;66629;47.346;19.038;2023-05-09T03:41:58;6.28;;;4.32;;
77518;SDS011;66629;47.346;19.038;2023-05-09T03:44:23;5.53;;;3.55;;
77518;SDS011;66629;47.346;19.038;2023-05-09T03:46:48;5.80;;;3.85;;
77518;SDS011;66629;47.346;19.038;2023-05-09T03:49:14;6.30;;;4.20;;
77518;SDS011;66629;47.346;19.038;2023-05-09T03:51:39;5.88;;;4.00;;
77518;SDS011;66629;47.346;19.038;2023-05-09T03:54:05;6.80;;;4.18;;
77518;SDS011;66629;47.346;19.038;2023-05-09T03:56:30;5.90;;;4.32;;
77518;SDS011;66629;47.346;19.038;2023-05-09T03:58:55;6.57;;;3.83;;
77518;SDS011;66629;47.346;19.038;2023-05-09T04:01:21;7.75;;;4.60;;
77518;SDS011;66629;47.346;19.038;2023-05-09T04:03:46;12.23;;;4.28;;
77518;SDS011;66629;47.346;19.038;2023-05-09T04:06:12;7.38;;;4.00;;
77518;SDS011;66629;47.346;19.038;2023-05-09T04:08:37;6.13;;;3.85;;
77518;SDS011;66629;47.346;19.038;2023-05-09T04:11:03;7.15;;;4.10;;
77518;SDS011;66629;47.346;19.038;2023-05-09T04:13:28;5.80;;;3.75;;
77518;SDS011;66629;47.346;19.038;2023-05-09T04:15:55;6.55;;;4.50;;
77518;SDS011;66629;47.346;19.038;2023-05-09T04:18:21;8.98;;;4.47;;
77518;SDS011;66629;47.346;19.038;2023-05-09T04:20:46;6.43;;;4.15;;
77518;SDS011;66629;47.346;19.038;2023-05-09T04:23:12;7.63;;;4.50;;
77518;SDS011;66629;47.346;19.038;2023-05-09T04:25:37;6.65;;;4.30;;
77518;SDS011;66629;47.346;19.038;2023-05-09T04:28:03;10.05;;;4.30;;
77518;SDS011;66629;47.346;19.038;2023-05-09T04:30:28;6.78;;;4.47;;
77518;SDS011;66629;47.346;19.038;2023-05-09T04:32:54;7.70;;;4.40;;
77518;SDS011;66629;47.346;19.038;2023-05-09T04:35:20;8.52;;;4.20;;
77518;SDS011;66629;47.346;19.038;2023-05-09T04:37:46;8.43;;;3.97;;
77518;SDS011;66629;47.346;19.038;2023-05-09T04:40:12;10.70;;;4.45;;
77518;SDS011;66629;47.346;19.038;2023-05-09T04:42:37;7.40;;;4.25;;
77518;SDS011;66629;47.346;19.038;2023-05-09T04:45:03;6.80;;;4.25;;
77518;SDS011;66629;47.346;19.038;2023-05-09T04:47:29;5.47;;;3.60;;
77518;SDS011;66629;47.346;19.038;2023-05-09T04:49:55;5.70;;;3.63;;
77518;SDS011;66629;47.346;19.038;2023-05-09T04:52:20;6.28;;;4.18;;
77518;SDS011;66629;47.346;19.038;2023-05-09T04:54:46;5.32;;;3.38;;
77518;SDS011;66629;47.346;19.038;2023-05-09T04:57:11;4.82;;;3.40;;
77518;SDS011;66629;47.346;19.038;2023-05-09T04:59:37;4.65;;;2.92;;
77518;SDS011;66629;47.346;19.038;2023-05-09T05:02:02;5.53;;;3.65;;
77518;SDS011;66629;47.346;19.038;2023-05-09T05:04:28;7.22;;;3.83;;
77518;SDS011;66629;47.346;19.038;2023-05-09T05:06:53;5.47;;;3.45;;
77518;SDS011;66629;47.346;19.038;2023-05-09T05:09:19;6.15;;;4.03;;
77518;SDS011;66629;47.346;19.038;2023-05-09T05:11:44;6.72;;;3.90;;
77518;SDS011;66629;47.346;19.038;2023-05-09T05:14:10;7.20;;;3.75;;
77518;SDS011;66629;47.346;19.038;2023-05-09T05:16:35;4.68;;;3.45;;
77518;SDS011;66629;47.346;19.038;2023-05-09T05:19:01;5.72;;;3.42;;
77518;SDS011;66629;47.346;19.038;2023-05-09T05:21:27;4.10;;;2.80;;
77518;SDS011;66629;47.346;19.038;2023-05-09T05:23:52;5.45;;;3.03;;
77518;SDS011;66629;47.346;19.038;2023-05-09T05:26:18;6.22;;;2.90;;
77518;SDS011;66629;47.346;19.038;2023-05-09T05:28:43;4.03;;;2.28;;
77518;SDS011;66629;47.346;19.038;2023-05-09T05:31:08;4.85;;;2.67;;
77518;SDS011;66629;47.346;19.038;2023-05-09T05:33:34;6.03;;;3.63;;
77518;SDS011;66629;47.346;19.038;2023-05-09T05:35:59;5.70;;;2.60;;
77518;SDS011;66629;47.346;19.038;2023-05-09T05:38:25;4.35;;;2.70;;
77518;SDS011;66629;47.346;19.038;2023-05-09T05:40:50;4.57;;;2.25;;
77518;SDS011;66629;47.346;19.038;2023-05-09T05:43:15;4.68;;;2.85;;
77518;SDS011;66629;47.346;19.038;2023-05-09T05:45:41;8.10;;;3.22;;
77518;SDS011;66629;47.346;19.038;2023-05-09T05:48:06;3.88;;;2.63;;
77518;SDS011;66629;47.346;19.038;2023-05-09T05:50:32;5.90;;;3.55;;
77518;SDS011;66629;47.346;19.038;2023-05-09T05:52:58;4.35;;;2.65;;
77518;SDS011;66629;47.346;19.038;2023-05-09T05:55:23;4.60;;;2.75;;
77518;SDS011;66629;47.346;19.038;2023-05-09T05:57:49;2.75;;;1.80;;
77518;SDS011;66629;47.346;19.038;2023-05-09T06:00:14;3.38;;;2.47;;
77518;SDS011;66629;47.346;19.038;2023-05-09T06:02:41;4.60;;;2.13;;
77518;SDS011;66629;47.346;19.038;2023-05-09T06:05:08;3.30;;;2.33;;
77518;SDS011;66629;47.346;19.038;2023-05-09T06:07:34;3.17;;;2.17;;
77518;SDS011;66629;47.346;19.038;2023-05-09T06:09:59;4.57;;;2.30;;
77518;SDS011;66629;47.346;19.038;2023-05-09T06:12:25;4.45;;;1.85;;
77518;SDS011;66629;47.346;19.038;2023-05-09T06:14:50;4.65;;;2.30;;
77518;SDS011;66629;47.346;19.038;2023-05-09T06:17:16;1.63;;;1.40;;
77518;SDS011;66629;47.346;19.038;2023-05-09T06:19:41;4.72;;;2.20;;
77518;SDS011;66629;47.346;19.038;2023-05-09T06:22:07;2.28;;;1.63;;
77518;SDS011;66629;47.346;19.038;2023-05-09T06:24:32;3.58;;;1.90;;
77518;SDS011;66629;47.346;19.038;2023-05-09T06:26:57;3.63;;;2.20;;
77518;SDS011;66629;47.346;19.038;2023-05-09T06:29:23;6.05;;;1.90;;
77518;SDS011;66629;47.346;19.038;2023-05-09T06:31:48;3.17;;;1.90;;
77518;SDS011;66629;47.346;19.038;2023-05-09T06:34:14;4.55;;;1.88;;
77518;SDS011;66629;47.346;19.038;2023-05-09T06:36:39;5.20;;;1.70;;
77518;SDS011;66629;47.346;19.038;2023-05-09T06:39:05;3.95;;;1.60;;
77518;SDS011;66629;47.346;19.038;2023-05-09T06:41:30;2.70;;;1.80;;
77518;SDS011;66629;47.346;19.038;2023-05-09T06:43:55;1.63;;;1.40;;
77518;SDS011;66629;47.346;19.038;2023-05-09T06:46:21;2.10;;;1.90;;
77518;SDS011;66629;47.346;19.038;2023-05-09T06:48:46;1.88;;;1.45;;
77518;SDS011;66629;47.346;19.038;2023-05-09T06:51:12;3.30;;;2.08;;
77518;SDS011;66629;47.346;19.038;2023-05-09T06:53:37;2.40;;;1.83;;
77518;SDS011;66629;47.346;19.038;2023-05-09T06:56:03;2.90;;;2.10;;
77518;SDS011;66629;47.346;19.038;2023-05-09T06:58:28;2.95;;;2.15;;
77518;SDS011;66629;47.346;19.038;2023-05-09T07:00:54;3.80;;;1.80;;
77518;SDS011;66629;47.346;19.038;2023-05-09T07:03:20;4.75;;;1.95;;
77518;SDS011;66629;47.346;19.038;2023-05-09T07:05:45;5.47;;;1.60;;
77518;SDS011;66629;47.346;19.038;2023-05-09T07:08:11;2.15;;;1.80;;
77518;SDS011;66629;47.346;19.038;2023-05-09T07:10:36;1.73;;;1.58;;
77518;SDS011;66629;47.346;19.038;2023-05-09T07:13:02;3.30;;;1.55;;
77518;SDS011;66629;47.346;19.038;2023-05-09T07:15:28;4.57;;;1.90;;
77518;SDS011;66629;47.346;19.038;2023-05-09T07:17:54;2.47;;;2.17;;
77518;SDS011;66629;47.346;19.038;2023-05-09T07:20:19;3.33;;;1.80;;
77518;SDS011;66629;47.346;19.038;2023-05-09T07:22:45;2.85;;;2.08;;
77518;SDS011;66629;47.346;19.038;2023-05-09T07:25:10;1.77;;;1.48;;
77518;SDS011;66629;47.346;19.038;2023-05-09T07:27:36;2.88;;;1.70;;
77518;SDS011;66629;47.346;19.038;2023-05-09T07:30:02;3.55;;;1.80;;
77518;SDS011;66629;47.346;19.038;2023-05-09T07:32:29;2.67;;;1.48;;
77518;SDS011;66629;47.346;19.038;2023-05-09T07:34:54;1.88;;;1.60;;
77518;SDS011;66629;47.346;19.038;2023-05-09T07:37:20;2.00;;;1.80;;
77518;SDS011;66629;47.346;19.038;2023-05-09T07:39:45;2.08;;;1.58;;
77518;SDS011;66629;47.346;19.038;2023-05-09T07:42:13;2.80;;;1.80;;
77518;SDS011;66629;47.346;19.038;2023-05-09T07:44:39;2.60;;;1.98;;
77518;SDS011;66629;47.346;19.038;2023-05-09T07:47:05;2.55;;;1.80;;
77518;SDS011;66629;47.346;19.038;2023-05-09T07:49:32;2.08;;;1.80;;
77518;SDS011;66629;47.346;19.038;2023-05-09T07:51:57;2.42;;;1.90;;
77518;SDS011;66629;47.346;19.038;2023-05-09T07:54:23;2.22;;;1.83;;
77518;SDS011;66629;47.346;19.038;2023-05-09T07:56:48;9.82;;;1.70;;
77518;SDS011;66629;47.346;19.038;2023-05-09T07:59:14;2.33;;;1.60;;
77518;SDS011;66629;47.346;19.038;2023-05-09T08:01:39;3.25;;;1.70;;
77518;SDS011;66629;47.346;19.038;2023-05-09T08:04:05;2.50;;;1.63;;
77518;SDS011;66629;47.346;19.038;2023-05-09T08:06:32;2.03;;;1.80;;
77518;SDS011;66629;47.346;19.038;2023-05-09T08:08:58;1.48;;;1.38;;
77518;SDS011;66629;47.346;19.038;2023-05-09T08:11:24;1.65;;;1.23;;
77518;SDS011;66629;47.346;19.038;2023-05-09T08:13:49;1.55;;;1.42;;
77518;SDS011;66629;47.346;19.038;2023-05-09T08:16:15;4.40;;;1.40;;
77518;SDS011;66629;47.346;19.038;2023-05-09T08:18:41;3.83;;;1.50;;
77518;SDS011;66629;47.346;19.038;2023-05-09T08:21:07;3.03;;;1.25;;
77518;SDS011;66629;47.346;19.038;2023-05-09T08:23:32;1.50;;;1.40;;
77518;SDS011;66629;47.346;19.038;2023-05-09T08:25:58;2.88;;;1.60;;
77518;SDS011;66629;47.346;19.038;2023-05-09T08:28:23;1.67;;;1.35;;
77518;SDS011;66629;47.346;19.038;2023-05-09T08:30:49;2.78;;;1.30;;
77518;SDS011;66629;47.346;19.038;2023-05-09T08:33:15;3.88;;;1.25;;
77518;SDS011;66629;47.346;19.038;2023-05-09T08:35:41;2.13;;;1.65;;
77518;SDS011;66629;47.346;19.038;2023-05-09T08:38:07;4.85;;;1.42;;
77518;SDS011;66629;47.346;19.038;2023-05-09T08:40:36;1.40;;;1.30;;
77518;SDS011;66629;47.346;19.038;2023-05-09T08:43:05;3.03;;;1.50;;
77518;SDS011;66629;47.346;19.038;2023-05-09T08:45:31;2.15;;;1.80;;
77518;SDS011;66629;47.346;19.038;2023-05-09T08:48:01;2.28;;;1.50;;
77518;SDS011;66629;47.346;19.038;2023-05-09T08:50:27;2.17;;;1.40;;
77518;SDS011;66629;47.346;19.038;2023-05-09T08:52:53;1.52;;;1.38;;
77518;SDS011;66629;47.346;19.038;2023-05-09T08:55:19;1.20;;;1.10;;
77518;SDS011;66629;47.346;19.038;2023-05-09T08:57:44;2.25;;;1.20;;
77518;SDS011;66629;47.346;19.038;2023-05-09T09:00:10;3.50;;;1.95;;
77518;SDS011;66629;47.346;19.038;2023-05-09T09:02:39;1.40;;;1.30;;
77518;SDS011;66629;47.346;19.038;2023-05-09T09:05:05;1.73;;;1.35;;
77518;SDS011;66629;47.346;19.038;2023-05-09T09:07:32;3.08;;;2.00;;
77518;SDS011;66629;47.346;19.038;2023-05-09T09:10:00;3.35;;;1.45;;
77518;SDS011;66629;47.346;19.038;2023-05-09T09:12:28;1.77;;;1.50;;
77518;SDS011;66629;47.346;19.038;2023-05-09T09:14:55;1.55;;;1.17;;
77518;SDS011;66629;47.346;19.038;2023-05-09T09:17:26;2.35;;;1.15;;
77518;SDS011;66629;47.346;19.038;2023-05-09T09:19:55;3.03;;;1.20;;
77518;SDS011;66629;47.346;19.038;2023-05-09T09:22:27;2.40;;;1.52;;
77518;SDS011;66629;47.346;19.038;2023-05-09T09:24:58;1.60;;;1.20;;
77518;SDS011;66629;47.346;19.038;2023-05-09T09:27:27;1.88;;;1.10;;
77518;SDS011;66629;47.346;19.038;2023-05-09T09:29:53;1.20;;;1.10;;
77518;SDS011;66629;47.346;19.038;2023-05-09T09:32:19;1.23;;;1.13;;
77518;SDS011;66629;47.346;19.038;2023-05-09T09:34:50;1.40;;;1.02;;
77518;SDS011;66629;47.346;19.038;2023-05-09T09:37:28;7.03;;;3.22;;
77518;SDS011;66629;47.346;19.038;2023-05-09T09:39:56;7.35;;;2.85;;
77518;SDS011;66629;47.346;19.038;2023-05-09T09:42:22;1.17;;;1.08;;
77518;SDS011;66629;47.346;19.038;2023-05-09T09:45:11;1.48;;;1.30;;
77518;SDS011;66629;47.346;19.038;2023-05-09T09:47:37;1.15;;;1.00;;
77518;SDS011;66629;47.346;19.038;2023-05-09T09:50:10;1.10;;;0.90;;
77518;SDS011;66629;47.346;19.038;2023-05-09T09:52:40;1.05;;;1.00;;
77518;SDS011;66629;47.346;19.038;2023-05-09T09:55:13;1.10;;;1.08;;
77518;SDS011;66629;47.346;19.038;2023-05-09T09:57:40;2.40;;;1.00;;
77518;SDS011;66629;47.346;19.038;2023-05-09T10:00:09;1.15;;;1.05;;
77518;SDS011;66629;47.346;19.038;2023-05-09T10:02:46;1.30;;;1.20;;
77518;SDS011;66629;47.346;19.038;2023-05-09T10:05:18;1.45;;;1.20;;
77518;SDS011;66629;47.346;19.038;2023-05-09T10:07:58;1.30;;;1.20;;
77518;SDS011;66629;47.346;19.038;2023-05-09T10:10:26;1.20;;;1.10;;
77518;SDS011;66629;47.346;19.038;2023-05-09T10:12:54;3.97;;;1.30;;
77518;SDS011;66629;47.346;19.038;2023-05-09T10:15:22;1.65;;;1.10;;
77518;SDS011;66629;47.346;19.038;2023-05-09T10:17:52;2.88;;;1.23;;
77518;SDS011;66629;47.346;19.038;2023-05-09T10:20:20;3.08;;;1.17;;
77518;SDS011;66629;47.346;19.038;2023-05-09T10:22:47;1.42;;;1.30;;
77518;SDS011;66629;47.346;19.038;2023-05-09T10:25:21;1.48;;;1.20;;
77518;SDS011;66629;47.346;19.038;2023-05-09T10:27:51;3.42;;;1.10;;
77518;SDS011;66629;47.346;19.038;2023-05-09T10:30:27;1.30;;;1.20;;
77518;SDS011;66629;47.346;19.038;2023-05-09T10:33:08;2.05;;;1.00;;
77518;SDS011;66629;47.346;19.038;2023-05-09T10:35:36;1.92;;;1.10;;
77518;SDS011;66629;47.346;19.038;2023-05-09T10:38:05;2.05;;;1.17;;
77518;SDS011;66629;47.346;19.038;2023-05-09T10:40:31;1.60;;;1.30;;
77518;SDS011;66629;47.346;19.038;2023-05-09T10:42:58;1.92;;;1.40;;
77518;SDS011;66629;47.346;19.038;2023-05-09T10:45:23;2.30;;;1.20;;
77518;SDS011;66629;47.346;19.038;2023-05-09T10:47:50;1.65;;;1.30;;
77518;SDS011;66629;47.346;19.038;2023-05-09T10:50:17;3.00;;;1.30;;
77518;SDS011;66629;47.346;19.038;2023-05-09T10:55:37;1.90;;;1.30;;
77518;SDS011;66629;47.346;19.038;2023-05-09T10:58:30;4.22;;;1.30;;
77518;SDS011;66629;47.346;19.038;2023-05-09T11:01:01;3.13;;;1.20;;
77518;SDS011;66629;47.346;19.038;2023-05-09T11:09:24;1.42;;;1.30;;
77518;SDS011;66629;47.346;19.038;2023-05-09T11:17:11;1.60;;;1.40;;
77518;SDS011;66629;47.346;19.038;2023-05-09T11:22:24;4.13;;;1.67;;
77518;SDS011;66629;47.346;19.038;2023-05-09T11:25:07;1.50;;;1.20;;
77518;SDS011;66629;47.346;19.038;2023-05-09T11:30:04;1.35;;;1.25;;
77518;SDS011;66629;47.346;19.038;2023-05-09T11:32:31;1.50;;;1.40;;
77518;SDS011;66629;47.346;19.038;2023-05-09T11:35:05;1.35;;;1.20;;
77518;SDS011;66629;47.346;19.038;2023-05-09T11:37:31;1.42;;;1.33;;
77518;SDS011;66629;47.346;19.038;2023-05-09T11:39:57;1.48;;;1.38;;
77518;SDS011;66629;47.346;19.038;2023-05-09T11:42:26;1.45;;;1.35;;
77518;SDS011;66629;47.346;19.038;2023-05-09T11:44:52;1.52;;;1.30;;
77518;SDS011;66629;47.346;19.038;2023-05-09T11:47:18;1.45;;;1.15;;
77518;SDS011;66629;47.346;19.038;2023-05-09T11:49:44;1.42;;;1.10;;
77518;SDS011;66629;47.346;19.038;2023-05-09T11:52:10;1.50;;;1.23;;
77518;SDS011;66629;47.346;19.038;2023-05-09T11:54:37;3.13;;;1.10;;
77518;SDS011;66629;47.346;19.038;2023-05-09T11:57:03;1.98;;;1.10;;
77518;SDS011;66629;47.346;19.038;2023-05-09T11:59:29;1.25;;;1.15;;
77518;SDS011;66629;47.346;19.038;2023-05-09T12:01:55;1.80;;;1.40;;
77518;SDS011;66629;47.346;19.038;2023-05-09T12:04:20;2.35;;;1.30;;
77518;SDS011;66629;47.346;19.038;2023-05-09T12:06:46;1.38;;;1.27;;
77518;SDS011;66629;47.346;19.038;2023-05-09T12:09:13;1.95;;;1.33;;
77518;SDS011;66629;47.346;19.038;2023-05-09T12:11:49;2.30;;;1.20;;
77518;SDS011;66629;47.346;19.038;2023-05-09T12:14:27;1.67;;;1.33;;
77518;SDS011;66629;47.346;19.038;2023-05-09T12:16:57;1.83;;;1.30;;
77518;SDS011;66629;47.346;19.038;2023-05-09T12:19:26;1.20;;;1.10;;
77518;SDS011;66629;47.346;19.038;2023-05-09T12:21:55;1.67;;;1.08;;
77518;SDS011;66629;47.346;19.038;2023-05-09T12:24:24;5.70;;;1.23;;
77518;SDS011;66629;47.346;19.038;2023-05-09T12:26:51;2.30;;;1.13;;
77518;SDS011;66629;47.346;19.038;2023-05-09T12:29:17;2.70;;;1.40;;
77518;SDS011;66629;47.346;19.038;2023-05-09T12:31:44;1.25;;;1.10;;
77518;SDS011;66629;47.346;19.038;2023-05-09T12:34:10;1.83;;;1.30;;
77518;SDS011;66629;47.346;19.038;2023-05-09T12:36:36;1.30;;;1.10;;
77518;SDS011;66629;47.346;19.038;2023-05-09T12:39:02;1.60;;;1.30;;
77518;SDS011;66629;47.346;19.038;2023-05-09T12:41:33;2.30;;;1.50;;
77518;SDS011;66629;47.346;19.038;2023-05-09T12:43:59;1.45;;;1.25;;
77518;SDS011;66629;47.346;19.038;2023-05-09T12:46:25;1.60;;;1.30;;
77518;SDS011;66629;47.346;19.038;2023-05-09T12:48:50;1.40;;;1.30;;
77518;SDS011;66629;47.346;19.038;2023-05-09T12:51:19;2.38;;;1.45;;
77518;SDS011;66629;47.346;19.038;2023-05-09T12:53:45;2.03;;;1.30;;
77518;SDS011;66629;47.346;19.038;2023-05-09T12:58:50;1.17;;;1.02;;
77518;SDS011;66629;47.346;19.038;2023-05-09T13:01:17;2.10;;;1.30;;
77518;SDS011;66629;47.346;19.038;2023-05-09T13:03:51;1.98;;;1.27;;
77518;SDS011;66629;47.346;19.038;2023-05-09T13:06:17;1.58;;;1.27;;
77518;SDS011;66629;47.346;19.038;2023-05-09T13:08:43;1.70;;;1.50;;
77518;SDS011;66629;47.346;19.038;2023-05-09T13:11:08;1.33;;;1.20;;
77518;SDS011;66629;47.346;19.038;2023-05-09T13:13:35;2.92;;;1.45;;
77518;SDS011;66629;47.346;19.038;2023-05-09T13:16:02;1.42;;;1.17;;
77518;SDS011;66629;47.346;19.038;2023-05-09T13:18:28;3.35;;;1.40;;
77518;SDS011;66629;47.346;19.038;2023-05-09T13:20:53;1.80;;;1.55;;
77518;SDS011;66629;47.346;19.038;2023-05-09T13:23:19;2.58;;;1.30;;
77518;SDS011;66629;47.346;19.038;2023-05-09T13:25:46;1.38;;;1.27;;
77518;SDS011;66629;47.346;19.038;2023-05-09T13:28:11;1.20;;;1.10;;
77518;SDS011;66629;47.346;19.038;2023-05-09T13:30:37;1.42;;;1.30;;
77518;SDS011;66629;47.346;19.038;2023-05-09T13:33:02;1.92;;;1.42;;
77518;SDS011;66629;47.346;19.038;2023-05-09T13:35:28;1.50;;;1.15;;
77518;SDS011;66629;47.346;19.038;2023-05-09T13:37:53;2.25;;;1.48;;
77518;SDS011;66629;47.346;19.038;2023-05-09T13:40:19;1.40;;;1.20;;
77518;SDS011;66629;47.346;19.038;2023-05-09T13:42:44;4.93;;;1.33;;
77518;SDS011;66629;47.346;19.038;2023-05-09T13:45:12;2.20;;;1.35;;
77518;SDS011;66629;47.346;19.038;2023-05-09T13:47:37;1.25;;;1.15;;
77518;SDS011;66629;47.346;19.038;2023-05-09T13:50:03;1.50;;;1.10;;
77518;SDS011;66629;47.346;19.038;2023-05-09T13:52:29;1.27;;;1.17;;
77518;SDS011;66629;47.346;19.038;2023-05-09T13:54:54;1.20;;;1.10;;
77518;SDS011;66629;47.346;19.038;2023-05-09T13:57:20;1.38;;;1.27;;
77518;SDS011;66629;47.346;19.038;2023-05-09T13:59:45;1.90;;;1.13;;
77518;SDS011;66629;47.346;19.038;2023-05-09T14:02:11;3.78;;;1.30;;
77518;SDS011;66629;47.346;19.038;2023-05-09T14:04:37;2.70;;;1.40;;
77518;SDS011;66629;47.346;19.038;2023-05-09T14:07:03;1.52;;;1.23;;
77518;SDS011;66629;47.346;19.038;2023-05-09T14:09:28;1.02;;;1.02;;
77518;SDS011;66629;47.346;19.038;2023-05-09T14:11:54;1.52;;;1.23;;
77518;SDS011;66629;47.346;19.038;2023-05-09T14:14:21;1.20;;;1.10;;
77518;SDS011;66629;47.346;19.038;2023-05-09T14:16:48;2.35;;;1.27;;
77518;SDS011;66629;47.346;19.038;2023-05-09T14:19:15;1.67;;;1.30;;
77518;SDS011;66629;47.346;19.038;2023-05-09T14:21:41;2.55;;;1.10;;
77518;SDS011;66629;47.346;19.038;2023-05-09T14:24:08;3.22;;;1.55;;
77518;SDS011;66629;47.346;19.038;2023-05-09T14:26:34;2.15;;;1.20;;
77518;SDS011;66629;47.346;19.038;2023-05-09T14:28:59;2.30;;;1.15;;
77518;SDS011;66629;47.346;19.038;2023-05-09T14:31:26;1.48;;;1.13;;
77518;SDS011;66629;47.346;19.038;2023-05-09T14:33:52;1.67;;;1.10;;
77518;SDS011;66629;47.346;19.038;2023-05-09T14:36:18;1.38;;;1.00;;
77518;SDS011;66629;47.346;19.038;2023-05-09T14:38:43;3.40;;;1.02;;
77518;SDS011;66629;47.346;19.038;2023-05-09T14:41:10;1.20;;;1.10;;
77518;SDS011;66629;47.346;19.038;2023-05-09T14:43:37;1.20;;;1.10;;
77518;SDS011;66629;47.346;19.038;2023-05-09T14:46:03;1.42;;;1.08;;
77518;SDS011;66629;47.346;19.038;2023-05-09T14:48:28;2.08;;;1.10;;
77518;SDS011;66629;47.346;19.038;2023-05-09T14:50:54;1.95;;;1.10;;
77518;SDS011;66629;47.346;19.038;2023-05-09T14:53:23;2.22;;;1.13;;
77518;SDS011;66629;47.346;19.038;2023-05-09T14:55:49;3.08;;;1.42;;
77518;SDS011;66629;47.346;19.038;2023-05-09T14:58:15;1.27;;;1.10;;
77518;SDS011;66629;47.346;19.038;2023-05-09T15:00:42;2.15;;;1.10;;
77518;SDS011;66629;47.346;19.038;2023-05-09T15:03:10;0.90;;;0.90;;